Time;durP1;ratioP1;P1;durP2;ratioP2;P2;SDS_P1;SDS_P2;PMS_P1;PMS_P2;Temp;Humidity;BMP_temperature;BMP_pressure;BME280_temperature;BME280_humidity;BME280_pressure;Samples;Min_cycle;Max_cycle;Signal;HPM_P1;HPM_P2
2020/12/24 00:03:36;;;;;;;6.63;2.42;;;10.50;99.90;;;;;;12374910;28;20048;-85
2020/12/24 00:09:38;;;;;;;7.90;2.72;;;10.60;99.90;;;;;;12389004;28;20054;-83
2020/12/24 00:15:40;;;;;;;10.65;3.00;;;10.50;99.90;;;;;;12371910;28;20050;-85
2020/12/24 00:21:50;;;;;;;5.55;2.22;;;10.50;99.90;;;;;;12374109;28;20058;-86
2020/12/24 00:27:52;;;;;;;7.85;2.28;;;10.40;99.90;;;;;;12362013;28;20051;-85
2020/12/24 00:33:53;;;;;;;8.07;2.60;;;10.50;99.90;;;;;;12394886;28;20042;-84
2020/12/24 00:39:54;;;;;;;8.63;2.90;;;10.40;99.90;;;;;;12401473;28;20506;-84
2020/12/24 00:45:55;;;;;;;7.38;2.90;;;10.30;99.90;;;;;;12399875;28;20043;-83
2020/12/24 00:52:09;;;;;;;3.80;1.90;;;10.50;99.90;;;;;;12402650;28;20224;-85
2020/12/24 00:58:10;;;;;;;5.53;1.60;;;10.30;99.90;;;;;;12398682;28;20061;-85
2020/12/24 01:04:12;;;;;;;4.60;1.10;;;9.90;99.90;;;;;;12400314;28;20077;-85
2020/12/24 01:10:13;;;;;;;4.93;0.80;;;9.60;99.90;;;;;;12382386;28;20418;-84
2020/12/24 01:16:15;;;;;;;2.45;0.68;;;9.60;99.90;;;;;;12377633;28;20089;-85
2020/12/24 01:22:33;;;;;;;5.38;0.93;;;9.50;99.90;;;;;;12387251;28;20148;-84
2020/12/24 01:28:35;;;;;;;5.32;1.10;;;9.40;99.90;;;;;;12384914;28;20505;-84
2020/12/24 01:34:36;;;;;;;3.47;1.02;;;9.40;99.90;;;;;;12392606;28;20212;-85
2020/12/24 01:40:38;;;;;;;3.90;1.30;;;9.40;99.90;;;;;;12375253;28;20057;-84
2020/12/24 01:46:39;;;;;;;4.60;1.60;;;9.40;99.90;;;;;;12373636;28;20371;-85
2020/12/24 01:52:50;;;;;;;6.65;1.50;;;9.30;99.90;;;;;;12388225;28;20073;-85
2020/12/24 01:58:53;;;;;;;9.18;1.42;;;9.40;99.90;;;;;;12394823;28;20047;-85
2020/12/24 02:04:54;;;;;;;6.50;1.30;;;9.40;99.90;;;;;;12419958;28;20061;-85
2020/12/24 02:10:56;;;;;;;6.93;1.45;;;9.40;99.90;;;;;;12364071;28;20370;-85
2020/12/24 02:16:57;;;;;;;6.15;1.55;;;9.20;99.90;;;;;;12371498;28;20069;-85
2020/12/24 02:23:08;;;;;;;13.77;2.35;;;9.10;99.90;;;;;;12391418;28;20089;-85
2020/12/24 02:29:10;;;;;;;8.43;2.22;;;9.00;99.90;;;;;;12396686;28;20054;-85
2020/12/24 02:35:12;;;;;;;9.27;1.88;;;9.00;99.90;;;;;;12375582;28;20745;-86
2020/12/24 02:41:13;;;;;;;9.43;2.10;;;9.00;99.90;;;;;;12390207;28;20085;-84
2020/12/24 02:47:14;;;;;;;11.27;1.90;;;8.90;99.90;;;;;;12396029;28;20058;-84
2020/12/24 02:53:30;;;;;;;6.90;2.05;;;8.90;99.90;;;;;;12394497;28;20111;-84
2020/12/24 02:59:31;;;;;;;8.30;1.65;;;9.00;99.90;;;;;;12398790;28;20410;-84
2020/12/24 03:05:33;;;;;;;13.60;1.98;;;8.90;99.90;;;;;;12394631;28;20442;-84
2020/12/24 03:11:40;;;;;;;12.25;2.05;;;8.70;99.90;;;;;;12377187;28;20173;-85
2020/12/24 03:17:42;;;;;;;11.38;1.95;;;8.70;99.90;;;;;;12384704;28;20169;-84
2020/12/24 03:23:50;;;;;;;9.38;1.73;;;8.70;99.90;;;;;;12380935;28;20119;-84
2020/12/24 03:29:52;;;;;;;12.65;1.77;;;8.70;99.90;;;;;;12380982;28;20486;-84
2020/12/24 03:35:53;;;;;;;12.43;2.78;;;8.60;99.90;;;;;;12394324;28;20049;-85
2020/12/24 03:41:54;;;;;;;10.13;1.90;;;8.50;99.90;;;;;;12392318;28;20100;-85
2020/12/24 03:47:56;;;;;;;11.40;2.15;;;8.60;99.90;;;;;;12396155;28;20140;-84
2020/12/24 03:54:09;;;;;;;8.48;1.63;;;8.60;99.90;;;;;;12378946;28;20161;-84
2020/12/24 04:00:10;;;;;;;10.77;1.95;;;8.60;99.90;;;;;;12391235;28;20053;-84
2020/12/24 04:06:12;;;;;;;7.43;1.50;;;8.40;99.90;;;;;;12400052;28;20053;-83
2020/12/24 04:12:13;;;;;;;11.85;1.98;;;8.40;99.90;;;;;;12395604;28;20537;-83
2020/12/24 04:18:14;;;;;;;13.80;2.08;;;8.40;99.90;;;;;;12387016;28;20514;-83
2020/12/24 04:24:30;;;;;;;9.20;2.05;;;8.30;99.90;;;;;;12392834;28;20049;-84
2020/12/24 04:30:31;;;;;;;15.48;2.28;;;8.40;99.90;;;;;;12373457;28;20121;-84
2020/12/24 04:36:32;;;;;;;8.63;1.77;;;8.40;99.90;;;;;;12375104;28;20177;-84
2020/12/24 04:42:35;;;;;;;6.78;1.80;;;8.20;99.90;;;;;;12373753;28;20096;-85
2020/12/24 04:48:39;;;;;;;10.95;2.40;;;8.20;99.90;;;;;;12394168;28;20078;-84
2020/12/24 04:54:52;;;;;;;7.32;1.80;;;8.10;99.90;;;;;;12376861;28;20116;-83
2020/12/24 05:00:54;;;;;;;8.80;1.90;;;7.90;99.90;;;;;;12413060;28;20052;-85
2020/12/24 05:07:06;;;;;;;5.53;2.15;;;7.90;99.90;;;;;;12408167;28;20470;-86
2020/12/24 05:13:18;;;;;;;11.13;2.05;;;7.70;99.90;;;;;;12376980;28;20046;-86
2020/12/24 05:19:19;;;;;;;7.57;1.75;;;7.60;99.90;;;;;;12388065;28;20089;-85
2020/12/24 05:25:20;;;;;;;8.30;2.15;;;7.60;99.90;;;;;;12377783;28;20503;-85
2020/12/24 05:31:34;;;;;;;11.48;2.42;;;7.40;99.90;;;;;;12403140;28;20065;-85
2020/12/24 05:37:35;;;;;;;10.90;2.28;;;7.40;99.90;;;;;;12391301;28;20328;-85
2020/12/24 05:43:41;;;;;;;6.32;1.40;;;7.60;99.90;;;;;;12377144;28;20050;-85
2020/12/24 05:49:42;;;;;;;3.97;1.30;;;7.50;99.90;;;;;;12377832;28;20049;-86
2020/12/24 05:55:43;;;;;;;2.53;1.40;;;6.40;99.90;;;;;;12393324;28;20053;-86
2020/12/24 06:02:16;;;;;;;2.50;1.50;;;6.00;99.90;;;;;;12375748;28;20100;-84
2020/12/24 06:08:22;;;;;;;2.97;1.75;;;5.80;99.90;;;;;;12373562;28;20095;-85
2020/12/24 06:14:26;;;;;;;2.72;1.98;;;5.70;99.90;;;;;;12379717;28;20053;-86
2020/12/24 06:20:30;;;;;;;2.28;1.08;;;5.70;99.90;;;;;;12374355;28;20053;-85
2020/12/24 06:26:37;;;;;;;1.80;1.20;;;5.20;99.90;;;;;;12376443;28;20066;-85
2020/12/24 06:32:45;;;;;;;1.90;1.30;;;4.90;99.90;;;;;;12376577;28;20473;-85
2020/12/24 06:38:47;;;;;;;1.92;0.75;;;4.70;99.90;;;;;;12389622;28;20502;-85
2020/12/24 06:44:49;;;;;;;0.90;0.68;;;4.30;99.90;;;;;;12370896;28;20082;-85
2020/12/24 06:51:02;;;;;;;1.73;0.90;;;4.10;99.90;;;;;;12366217;28;20081;-86
2020/12/24 06:57:26;;;;;;;1.90;1.00;;;3.90;99.90;;;;;;12383204;28;20133;-86
2020/12/24 07:03:27;;;;;;;1.88;0.90;;;3.80;99.90;;;;;;12389210;28;20470;-86
2020/12/24 07:09:32;;;;;;;1.58;0.90;;;3.80;99.90;;;;;;12382360;28;20065;-85
2020/12/24 07:15:42;;;;;;;1.48;1.00;;;3.80;99.90;;;;;;12393485;28;20042;-85
2020/12/24 07:21:51;;;;;;;2.10;1.30;;;3.80;99.90;;;;;;12379018;28;20050;-86
2020/12/24 07:27:53;;;;;;;2.35;1.30;;;3.70;99.90;;;;;;12371672;28;20062;-86
2020/12/24 07:33:54;;;;;;;2.50;1.77;;;3.60;99.90;;;;;;12344881;28;20049;-85
2020/12/24 07:39:56;;;;;;;2.50;1.90;;;3.60;99.90;;;;;;12335552;28;20061;-87
2020/12/24 07:46:06;;;;;;;3.63;2.60;;;3.60;99.90;;;;;;12333920;28;20050;-86
2020/12/24 07:52:10;;;;;;;3.47;2.60;;;3.60;99.90;;;;;;12380112;28;20081;-86
2020/12/24 07:58:13;;;;;;;4.35;3.13;;;3.60;99.90;;;;;;12375056;28;20465;-86
2020/12/24 08:04:15;;;;;;;4.30;3.63;;;3.70;99.90;;;;;;12361143;28;20054;-87
2020/12/24 08:10:17;;;;;;;4.55;3.55;;;3.90;99.90;;;;;;12377300;28;20062;-86
2020/12/24 08:16:19;;;;;;;5.75;3.92;;;4.00;99.90;;;;;;12409147;28;20030;-87
2020/12/24 08:22:32;;;;;;;5.18;3.88;;;4.10;99.90;;;;;;12390885;28;20053;-86
2020/12/24 08:28:35;;;;;;;5.32;3.80;;;4.20;99.90;;;;;;12369714;28;20436;-87
2020/12/24 08:34:36;;;;;;;4.43;3.10;;;4.30;99.90;;;;;;12385839;28;20044;-86
2020/12/24 08:40:37;;;;;;;4.47;3.40;;;4.50;99.90;;;;;;12358006;28;20070;-86
2020/12/24 08:46:39;;;;;;;4.40;3.53;;;4.50;99.90;;;;;;12359542;28;20070;-86
2020/12/24 08:52:43;;;;;;;4.32;2.90;;;4.50;99.90;;;;;;12359900;28;22352;-87
2020/12/24 08:58:54;;;;;;;5.60;3.22;;;4.60;99.90;;;;;;12388340;28;20050;-87
2020/12/24 09:04:57;;;;;;;5.63;3.40;;;4.80;99.90;;;;;;12392417;28;20077;-87
2020/12/24 09:10:58;;;;;;;4.93;3.30;;;4.80;99.90;;;;;;12384663;28;20512;-86
2020/12/24 09:17:04;;;;;;;5.05;3.47;;;4.80;99.90;;;;;;12367072;28;20082;-87
2020/12/24 09:23:14;;;;;;;4.45;3.20;;;4.80;99.90;;;;;;12371791;28;20061;-86
2020/12/24 09:29:16;;;;;;;5.70;2.97;;;4.90;99.90;;;;;;12381235;28;20092;-87
2020/12/24 09:35:23;;;;;;;6.45;3.58;;;4.90;99.90;;;;;;12363607;28;20410;-87
2020/12/24 09:41:24;;;;;;;7.30;5.10;;;4.90;99.90;;;;;;12362492;28;20470;-87
2020/12/24 09:47:26;;;;;;;6.68;4.13;;;4.80;99.90;;;;;;12370843;28;20224;-87
2020/12/24 09:53:27;;;;;;;5.95;4.10;;;5.00;99.90;;;;;;12384755;28;20088;-87
2020/12/24 09:59:28;;;;;;;6.07;4.32;;;5.10;99.90;;;;;;12387445;28;20074;-87
2020/12/24 10:05:29;;;;;;;5.28;3.78;;;5.10;99.90;;;;;;12391891;28;20058;-87
2020/12/24 10:11:31;;;;;;;5.82;3.65;;;5.10;99.90;;;;;;12385615;28;20523;-86
2020/12/24 10:17:32;;;;;;;5.80;3.80;;;5.10;99.90;;;;;;12372904;28;20077;-86
2020/12/24 10:23:33;;;;;;;4.40;2.92;;;5.20;99.90;;;;;;12372314;28;20069;-87
2020/12/24 10:29:35;;;;;;;5.70;2.85;;;5.20;99.90;;;;;;12365310;28;20054;-86
2020/12/24 10:35:36;;;;;;;5.70;2.70;;;5.30;99.90;;;;;;12360736;28;20046;-86
2020/12/24 10:41:42;;;;;;;4.35;3.03;;;5.20;99.90;;;;;;12358113;28;20100;-86
2020/12/24 10:47:44;;;;;;;6.93;3.20;;;5.30;99.90;;;;;;12385876;28;20049;-86
2020/12/24 10:53:48;;;;;;;5.35;3.40;;;5.40;99.90;;;;;;12365413;28;20628;-86
2020/12/24 10:59:50;;;;;;;7.22;3.83;;;5.40;99.90;;;;;;12385474;28;20082;-86
2020/12/24 11:05:51;;;;;;;10.63;5.90;;;5.50;99.90;;;;;;12370426;28;20065;-85
2020/12/24 11:11:53;;;;;;;5.53;3.92;;;5.60;99.90;;;;;;12366250;28;20085;-86
2020/12/24 11:17:54;;;;;;;6.15;4.40;;;5.40;99.90;;;;;;12383231;28;20050;-85
2020/12/24 11:23:55;;;;;;;7.32;4.43;;;5.50;99.90;;;;;;12382523;28;20052;-86
2020/12/24 11:29:56;;;;;;;6.50;4.70;;;5.40;99.90;;;;;;12388403;28;20041;-85
2020/12/24 11:35:58;;;;;;;5.85;3.60;;;5.30;99.90;;;;;;12403530;28;20054;-85
2020/12/24 11:42:00;;;;;;;7.25;3.90;;;5.30;99.90;;;;;;12385203;28;20046;-85
2020/12/24 11:48:02;;;;;;;6.20;3.50;;;5.30;99.90;;;;;;12365496;28;20180;-84
2020/12/24 11:54:03;;;;;;;8.63;3.42;;;5.40;99.90;;;;;;12372999;28;20086;-86
2020/12/24 12:00:09;;;;;;;6.10;2.75;;;5.40;99.90;;;;;;12384845;28;20062;-86
2020/12/24 12:06:11;;;;;;;6.18;2.90;;;5.20;99.90;;;;;;12363604;28;20057;-86
2020/12/24 12:12:12;;;;;;;6.38;3.00;;;5.30;99.90;;;;;;12361533;28;20089;-85
2020/12/24 12:18:13;;;;;;;5.55;2.85;;;5.30;99.90;;;;;;12375929;28;20066;-85
2020/12/24 12:24:15;;;;;;;6.90;2.75;;;5.50;99.90;;;;;;12364918;28;20148;-84
2020/12/24 12:30:16;;;;;;;10.50;3.30;;;5.40;99.90;;;;;;12357094;28;20081;-85
2020/12/24 12:36:18;;;;;;;9.32;3.33;;;5.50;99.90;;;;;;12352365;28;20081;-85
2020/12/24 12:42:19;;;;;;;6.30;2.58;;;5.60;99.90;;;;;;12343419;28;20117;-84
2020/12/24 12:48:21;;;;;;;9.20;2.90;;;5.50;99.90;;;;;;12365448;28;20058;-85
2020/12/24 12:54:23;;;;;;;8.43;2.53;;;5.50;99.90;;;;;;12369487;28;20101;-85
2020/12/24 13:00:24;;;;;;;10.27;2.95;;;5.60;99.90;;;;;;12358230;28;20077;-85
2020/12/24 13:06:25;;;;;;;6.80;3.53;;;5.70;99.90;;;;;;12365842;28;20081;-84
2020/12/24 13:12:26;;;;;;;5.50;3.25;;;5.70;99.90;;;;;;12368355;28;20455;-84
2020/12/24 13:18:28;;;;;;;5.97;3.38;;;5.60;99.90;;;;;;12382596;28;20046;-84
2020/12/24 13:24:30;;;;;;;5.05;3.22;;;5.60;99.90;;;;;;12365209;28;20081;-84
2020/12/24 13:30:31;;;;;;;5.75;3.13;;;5.60;99.90;;;;;;12383528;28;20065;-84
2020/12/24 13:36:32;;;;;;;5.82;3.38;;;5.50;99.90;;;;;;12344149;28;20133;-84
2020/12/24 13:42:33;;;;;;;5.20;2.50;;;5.50;99.90;;;;;;12367070;28;20141;-84
2020/12/24 13:48:35;;;;;;;5.20;2.47;;;5.40;99.90;;;;;;12381619;28;20606;-84
2020/12/24 13:54:36;;;;;;;6.60;2.35;;;5.50;99.90;;;;;;12375947;28;20082;-84
2020/12/24 14:00:42;;;;;;;8.45;2.50;;;5.50;99.90;;;;;;12373823;28;20042;-85
2020/12/24 14:06:48;;;;;;;6.60;2.90;;;5.40;99.90;;;;;;12391932;28;20085;-84
2020/12/24 14:12:49;;;;;;;10.95;3.15;;;5.70;99.90;;;;;;12386568;28;20113;-84
2020/12/24 14:18:50;;;;;;;7.97;3.42;;;5.70;99.90;;;;;;12366865;28;20142;-84
2020/12/24 14:24:52;;;;;;;7.30;3.45;;;5.60;99.90;;;;;;12368277;28;20042;-85
2020/12/24 14:31:05;;;;;;;12.10;4.90;;;5.70;99.90;;;;;;12379829;28;20054;-84
2020/12/24 14:37:06;;;;;;;9.48;5.88;;;5.70;99.90;;;;;;12379777;28;20050;-85
2020/12/24 14:43:07;;;;;;;12.50;6.32;;;5.70;99.90;;;;;;12431143;28;20050;-85
2020/12/24 14:49:09;;;;;;;16.45;7.20;;;5.60;99.90;;;;;;12367947;28;20089;-85
2020/12/24 14:55:10;;;;;;;17.42;7.40;;;5.60;99.90;;;;;;12384598;28;20503;-85
2020/12/24 15:01:21;;;;;;;13.40;7.53;;;5.70;99.90;;;;;;12379324;28;20037;-85
2020/12/24 15:07:22;;;;;;;18.73;7.80;;;5.60;99.90;;;;;;12365389;28;20553;-85
2020/12/24 15:13:24;;;;;;;17.27;9.13;;;5.50;99.90;;;;;;12368404;28;20065;-84
2020/12/24 15:19:25;;;;;;;11.95;7.55;;;5.50;99.90;;;;;;12383704;28;20050;-84
2020/12/24 15:25:27;;;;;;;14.13;8.55;;;5.40;99.90;;;;;;12382343;28;20046;-84
2020/12/24 15:31:39;;;;;;;17.98;7.80;;;5.50;99.90;;;;;;12375107;28;20054;-85
2020/12/24 15:37:41;;;;;;;18.10;8.88;;;5.60;99.90;;;;;;12339772;28;20078;-84
2020/12/24 15:43:42;;;;;;;16.98;7.63;;;5.60;99.90;;;;;;12390746;28;20125;-84
2020/12/24 15:49:43;;;;;;;16.40;6.60;;;5.50;99.90;;;;;;12354106;28;20137;-83
2020/12/24 15:55:45;;;;;;;19.40;6.82;;;5.50;99.90;;;;;;12332892;28;20060;-83
2020/12/24 16:01:58;;;;;;;19.73;6.50;;;5.50;99.90;;;;;;12363130;28;20077;-83
2020/12/24 16:08:00;;;;;;;14.68;5.93;;;5.40;99.90;;;;;;12377238;28;20078;-84
2020/12/24 16:14:06;;;;;;;13.60;5.13;;;5.50;99.90;;;;;;12355558;28;20042;-83
2020/12/24 16:20:08;;;;;;;15.10;5.65;;;5.50;99.90;;;;;;12347135;28;20137;-84
2020/12/24 16:26:09;;;;;;;10.80;5.80;;;5.40;99.90;;;;;;12366944;28;20064;-84
2020/12/24 16:32:19;;;;;;;11.02;5.72;;;5.50;99.90;;;;;;12375683;28;20041;-84
2020/12/24 16:38:20;;;;;;;15.52;6.88;;;5.60;99.90;;;;;;12365697;28;20054;-84
2020/12/24 16:44:21;;;;;;;16.73;5.82;;;5.70;99.90;;;;;;12384529;28;20054;-84
2020/12/24 16:50:24;;;;;;;9.68;3.40;;;5.50;99.90;;;;;;12380226;28;20080;-84
2020/12/24 16:56:26;;;;;;;10.80;4.00;;;5.60;99.90;;;;;;12366544;28;20058;-84
2020/12/24 17:02:36;;;;;;;13.00;4.50;;;5.40;99.90;;;;;;12366162;28;20054;-84
2020/12/24 17:08:37;;;;;;;10.13;4.95;;;5.30;99.90;;;;;;12348788;28;20054;-84
2020/12/24 17:14:39;;;;;;;7.13;1.58;;;5.40;99.90;;;;;;12364741;28;20046;-85
2020/12/24 17:20:47;;;;;;;4.75;1.58;;;5.20;99.90;;;;;;12363797;28;20453;-85
2020/12/24 17:26:53;;;;;;;4.78;1.67;;;5.00;99.90;;;;;;12383454;28;20065;-85
2020/12/24 17:32:54;;;;;;;9.00;2.58;;;4.80;99.90;;;;;;12380640;28;20133;-84
2020/12/24 17:38:56;;;;;;;8.40;3.70;;;4.90;99.90;;;;;;12378950;28;20065;-85
2020/12/24 17:44:57;;;;;;;8.70;3.78;;;4.80;99.90;;;;;;12402092;28;20073;-84
2020/12/24 17:50:58;;;;;;;11.05;4.30;;;5.00;99.90;;;;;;12355729;28;20485;-84
2020/12/24 17:57:00;;;;;;;11.48;4.55;;;4.90;99.90;;;;;;12360924;28;20092;-83
2020/12/24 18:03:12;;;;;;;17.75;4.78;;;5.00;99.90;;;;;;12365493;28;20077;-84
2020/12/24 18:09:13;;;;;;;13.73;3.58;;;5.20;99.90;;;;;;12371075;28;21021;-84
2020/12/24 18:15:14;;;;;;;18.08;5.68;;;5.20;99.90;;;;;;12381915;28;20054;-84
2020/12/24 18:21:16;;;;;;;10.90;4.45;;;5.30;99.90;;;;;;12381220;28;20088;-84
2020/12/24 18:27:17;;;;;;;10.32;4.65;;;5.40;99.90;;;;;;12385975;28;20049;-84
2020/12/24 18:33:32;;;;;;;13.68;4.97;;;5.50;99.90;;;;;;12371022;28;20046;-84
2020/12/24 18:39:34;;;;;;;14.30;4.25;;;5.50;99.90;;;;;;12361805;28;20146;-84
2020/12/24 18:45:35;;;;;;;7.60;3.40;;;5.50;99.90;;;;;;12387383;28;20121;-84
2020/12/24 18:51:36;;;;;;;8.18;3.47;;;5.40;99.90;;;;;;12386401;28;20054;-84
2020/12/24 18:57:39;;;;;;;10.63;3.45;;;5.30;99.90;;;;;;12368851;28;20085;-84
2020/12/24 19:03:49;;;;;;;12.70;4.03;;;5.30;99.90;;;;;;12375665;28;20553;-84
2020/12/24 19:09:51;;;;;;;16.60;4.82;;;5.20;99.90;;;;;;12354785;28;20057;-83
2020/12/24 19:15:52;;;;;;;8.88;3.63;;;5.20;99.90;;;;;;12378794;28;20499;-84
2020/12/24 19:21:54;;;;;;;8.82;3.35;;;5.10;99.90;;;;;;12371976;28;20077;-84
2020/12/24 19:27:55;;;;;;;12.45;3.90;;;5.00;99.90;;;;;;12364488;28;20418;-85
2020/12/24 19:34:10;;;;;;;10.13;4.40;;;5.00;99.90;;;;;;12378704;28;20410;-83
2020/12/24 19:40:12;;;;;;;10.25;3.50;;;5.00;99.90;;;;;;12375741;28;20478;-84
2020/12/24 19:46:15;;;;;;;7.82;3.38;;;4.90;99.90;;;;;;12383855;28;20092;-84
2020/12/24 19:52:17;;;;;;;9.57;3.85;;;4.80;99.90;;;;;;12375447;28;20612;-84
2020/12/24 19:58:19;;;;;;;9.85;5.10;;;4.80;99.90;;;;;;12358448;28;20049;-85
2020/12/24 20:04:28;;;;;;;8.82;4.95;;;4.80;99.90;;;;;;12353404;28;20081;-84
2020/12/24 20:10:30;;;;;;;10.27;5.78;;;4.70;99.90;;;;;;12360156;28;20069;-84
2020/12/24 20:16:32;;;;;;;6.50;4.82;;;4.70;99.90;;;;;;12370005;28;20069;-85
2020/12/24 20:22:34;;;;;;;7.32;4.53;;;4.60;99.90;;;;;;12361770;28;20088;-84
2020/12/24 20:28:37;;;;;;;8.93;4.73;;;4.60;99.90;;;;;;12354402;28;20093;-85
2020/12/24 20:34:50;;;;;;;11.18;4.63;;;4.50;99.90;;;;;;12351319;28;20043;-85
2020/12/24 20:40:51;;;;;;;7.13;3.85;;;4.60;99.90;;;;;;12365233;28;20137;-85
2020/12/24 20:46:52;;;;;;;8.00;4.25;;;4.50;99.90;;;;;;12360650;28;20080;-85
2020/12/24 20:52:55;;;;;;;5.68;3.60;;;4.40;99.90;;;;;;12376572;28;20074;-85
2020/12/24 20:58:58;;;;;;;7.50;4.10;;;4.30;99.90;;;;;;12397788;28;20085;-85
2020/12/24 21:05:11;;;;;;;8.07;4.03;;;4.30;99.90;;;;;;12384275;28;20137;-85
2020/12/24 21:11:13;;;;;;;7.55;3.97;;;4.30;99.90;;;;;;12393156;28;20045;-85
2020/12/24 21:17:14;;;;;;;8.02;4.05;;;4.30;99.90;;;;;;12422188;28;20050;-85
2020/12/24 21:23:16;;;;;;;8.88;4.53;;;4.30;99.90;;;;;;12393783;28;20042;-84
2020/12/24 21:29:18;;;;;;;12.00;5.53;;;4.30;99.90;;;;;;12398418;28;20054;-85
2020/12/24 21:35:30;;;;;;;13.68;5.35;;;4.20;99.90;;;;;;12376127;28;20058;-85
2020/12/24 21:41:31;;;;;;;11.15;6.82;;;4.20;99.90;;;;;;12371968;28;20640;-85
2020/12/24 21:47:32;;;;;;;17.65;9.93;;;4.10;99.90;;;;;;12377613;28;20081;-85
2020/12/24 21:53:34;;;;;;;12.23;7.47;;;4.20;99.90;;;;;;12375243;28;20050;-85
2020/12/24 21:59:35;;;;;;;12.55;7.80;;;4.20;99.90;;;;;;12391532;28;20057;-84
2020/12/24 22:05:48;;;;;;;18.73;8.63;;;4.30;99.90;;;;;;12373585;28;20389;-85
2020/12/24 22:11:54;;;;;;;16.92;8.18;;;4.30;99.90;;;;;;12370006;28;20150;-85
2020/12/24 22:17:56;;;;;;;15.57;9.68;;;4.30;99.90;;;;;;12371982;28;20051;-85
2020/12/24 22:23:57;;;;;;;16.02;10.07;;;4.30;99.90;;;;;;12361294;28;20065;-85
2020/12/24 22:29:58;;;;;;;19.42;10.20;;;4.30;99.90;;;;;;12396037;28;20156;-85
2020/12/24 22:36:13;;;;;;;18.58;10.18;;;4.30;99.90;;;;;;12378735;28;20054;-85
2020/12/24 22:42:14;;;;;;;15.20;10.23;;;4.30;99.90;;;;;;12360869;28;21570;-84
2020/12/24 22:48:15;;;;;;;15.48;10.07;;;4.30;99.90;;;;;;12375795;28;20141;-85
2020/12/24 22:54:17;;;;;;;19.90;9.65;;;4.20;99.90;;;;;;12389841;28;20043;-83
2020/12/24 23:00:36;;;;;;;15.20;9.57;;;4.40;99.90;;;;;;12370284;28;20097;-85
2020/12/24 23:06:45;;;;;;;15.77;9.20;;;4.30;99.90;;;;;;12385651;28;20054;-85
2020/12/24 23:12:46;;;;;;;18.20;8.48;;;4.40;99.90;;;;;;12390328;28;20081;-85
2020/12/24 23:18:48;;;;;;;13.73;8.07;;;4.30;99.90;;;;;;12388204;28;20419;-85
2020/12/24 23:24:49;;;;;;;11.57;6.65;;;4.30;99.90;;;;;;12358467;28;20809;-85
2020/12/24 23:30:51;;;;;;;14.98;7.10;;;4.30;99.90;;;;;;12363628;28;20088;-85
2020/12/24 23:36:56;;;;;;;12.35;6.28;;;4.40;99.90;;;;;;12379558;28;20414;-84
2020/12/24 23:42:58;;;;;;;9.55;5.43;;;4.40;99.90;;;;;;12367584;28;20561;-84
2020/12/24 23:48:59;;;;;;;12.40;5.38;;;4.30;99.90;;;;;;12368497;28;20058;-85
2020/12/24 23:55:01;;;;;;;8.93;5.78;;;4.10;99.90;;;;;;12367913;28;20137;-84
